Abingdon, VA (24210)

10:23 AM EDT on July 30, 2016 (GMT -0400)
Country Club Estates | | Change Station

Elev 1990 ft 36.69 °N, 81.97 °W | Updated 2 seconds ago

Rain
Rain
71.2 °F
Feels Like 71.2 °F
N
4.6
Wind Variable Wind from WSW
Gusts 4.6 mph

Today
High -- | Low -- °F
--% Chance of Precip.
Yesterday
High -- | Low -- °F
Precip. -- in
Pressure 30.11 in
Visibility 7.0 miles
Clouds Scattered Clouds 800 ft
Mostly Cloudy 6000 ft
Overcast 9000 ft
Dew Point 71 °F
Humidity 98%
Rainfall 0.00 in
Snow Depth Not available.
6:32 AM 8:35 PM
Waning Crescent, 13% visible
METAR KVJI 301415Z AUTO 25005KT 7SM SCT008 BKN060 OVC090 23/22 A3011 RMK AO2 T02260220
Pressure 30.11 in
Visibility 7.0 miles
Clouds Scattered Clouds 800 ft
Mostly Cloudy 6000 ft
Overcast 9000 ft
Dew Point 71 °F
Humidity 98%
Rainfall 0.00 in
Snow Depth Not available.
6:32 AM 8:35 PM
Waning Crescent, 13% visible
METAR KVJI 301415Z AUTO 25005KT 7SM SCT008 BKN060 OVC090 23/22 A3011 RMK AO2 T02260220

10-Day Weather Forecast

Almanac

Astronomy

Jul. 30, 2016 Rise Set
Actual Time
Civil Twilight
Nautical Twilight
Astronomical Twilight
Moon
Length of Visible Light
Length of Day
Tomorrow will be .
, % of the Moon is Illuminated

Today's Extremes

State Highs State Lows

Community

WunderPhotos

Upload Photos

1,928,565 photos uploaded!

WunderBlog® & News

Nearby

Air Quality

  Air Quality AQ Index Pollutant
Not available.

Snow Depth

Station Depth Elevation

Earthquake Activity

City Distance Mag. Time & Date
Minimum magnitude displayed is 2.5.

Coastal Water Temperatures

Place Temperature

Stations

Nearby Weather Stations

Station Location Temp. Windchill Dew Point Humidity Wind Precip. Elev Updated Type
                   

Watches & Warnings

There are currently no watches in effect.